| time (UTC) | temp C | wind direction | speed KPH | gust KPH | rain 1hr cm | rain 24hr cm | rain mn cm | humidity % | barometer mb |
| 20260502193526 | 17 | 355 | 4.8 | 12.9 | 0.00 | 0.00 | 0.00 | 52 | 1008.6 |
| 20260502191524 | 17 | 318 | 3.2 | 11.3 | 0.00 | 0.00 | 0.00 | 57 | 1008.7 |
| 20260502185524 | 15 | 1 | 6.4 | 11.3 | 0.00 | 0.00 | 0.00 | 75 | 1008.5 |
| 20260502183524 | 14 | 0 | 0.0 | 0.0 | 0.00 | 0.00 | 0.00 | 79 | 1008.6 |
| 20260502181525 | 15 | 0 | 0.0 | 0.0 | 0.00 | 0.00 | 0.00 | 77 | 1008.7 |
| 20260502163525 | 13 | 0 | 0.0 | 0.0 | 0.00 | 0.00 | 0.00 | 85 | 1008.6 |
| 20260502161524 | 13 | 0 | 0.0 | 0.0 | 0.00 | 0.00 | 0.00 | 84 | 1008.7 |
| 20260502151524 | 12 | 0 | 0.0 | 0.0 | 0.00 | 0.00 | 0.00 | 82 | 1009.0 |
| 20260502123525 | 15 | 0 | 0.0 | 0.0 | 0.00 | 0.00 | 0.00 | 77 | 1009.0 |
| 20260502121524 | 15 | 0 | 0.0 | 0.0 | 0.00 | 0.00 | 0.00 | 76 | 1008.8 |
| 20260502115524 | 15 | 0 | 0.0 | 0.0 | 0.00 | 0.00 | 0.00 | 75 | 1008.5 |
| 20260502113525 | 15 | 358 | 0.0 | 3.2 | 0.00 | 0.00 | 0.00 | 74 | 1008.3 |
| 20260502111525 | 16 | 181 | 0.0 | 0.0 | 0.00 | 0.00 | 0.00 | 71 | 1007.9 |
| 20260502105526 | 16 | 1 | 0.0 | 0.0 | 0.00 | 0.00 | 0.00 | 70 | 1007.8 |
| 20260502103524 | 16 | 1 | 0.0 | 4.8 | 0.00 | 0.00 | 0.00 | 69 | 1007.4 |
| 20260502101524 | 17 | 1 | 0.0 | 3.2 | 0.00 | 0.00 | 0.00 | 66 | 1007.2 |
| 20260502091524 | 20 | 354 | 0.0 | 4.8 | 0.00 | 0.00 | 0.00 | 56 | 1006.7 |
| 20260502071524 | 25 | 298 | 1.6 | 6.4 | 0.00 | 0.00 | 0.00 | 32 | 1005.1 |
| 20260502065524 | 26 | 335 | 1.6 | 4.8 | 0.00 | 0.00 | 0.00 | 32 | 1004.7 |
| 20260502063524 | 26 | 333 | 1.6 | 6.4 | 0.00 | 0.00 | 0.00 | 29 | 1004.6 |
| 20260502061524 | 26 | 270 | 4.8 | 11.3 | 0.00 | 0.00 | 0.00 | 28 | 1004.3 |
| 20260502055525 | 26 | 247 | 4.8 | 9.7 | 0.00 | 0.00 | 0.00 | 31 | 1004.4 |
| 20260502053524 | 26 | 276 | 4.8 | 11.3 | 0.00 | 0.00 | 0.00 | 33 | 1004.1 |
| 20260502051524 | 26 | 259 | 1.6 | 11.3 | 0.00 | 0.00 | 0.00 | 36 | 1004.2 |
| 20260502045524 | 25 | 260 | 4.8 | 9.7 | 0.00 | 0.00 | 0.00 | 33 | 1004.1 |
| 20260502043525 | 25 | 266 | 1.6 | 12.9 | 0.00 | 0.00 | 0.00 | 41 | 1004.0 |
| 20260502041525 | 23 | 253 | 4.8 | 12.9 | 0.00 | 0.00 | 0.00 | 46 | 1003.8 |
| 20260502035524 | 23 | 248 | 8.0 | 14.5 | 0.00 | 0.00 | 0.00 | 44 | 1003.8 |
| 20260502033525 | 23 | 253 | 6.4 | 16.1 | 0.00 | 0.03 | 0.00 | 44 | 1004.0 |
| 20260502031526 | 23 | 243 | 9.7 | 19.3 | 0.00 | 0.05 | 0.00 | 45 | 1003.7 |
| 20260502025525 | 23 | 229 | 4.8 | 11.3 | 0.00 | 0.08 | 0.00 | 46 | 1003.4 |
| 20260502023525 | 23 | 263 | 4.8 | 14.5 | 0.00 | 0.30 | 0.00 | 52 | 1003.3 |
| 20260502021525 | 24 | 253 | 4.8 | 14.5 | 0.00 | 0.53 | 0.00 | 41 | 1002.9 |
| 20260502015526 | 24 | 250 | 4.8 | 11.3 | 0.00 | 0.64 | 0.00 | 37 | 1002.7 |
| 20260502013525 | 23 | 261 | 0.0 | 6.4 | 0.00 | 0.69 | 0.00 | 42 | 1002.2 |
| 20260502011524 | 23 | 260 | 1.6 | 9.7 | 0.00 | 0.71 | 0.00 | 46 | 1002.2 |
| 20260502005526 | 22 | 231 | 3.2 | 14.5 | 0.00 | 0.79 | 0.00 | 49 | 1002.2 |
| 20260502003523 | 21 | 240 | 6.4 | 12.9 | 0.00 | 0.84 | 0.00 | 52 | 1002.0 |
| 20260502001524 | 21 | 269 | 3.2 | 9.7 | 0.00 | 0.84 | 0.00 | 54 | 1001.8 |
| 20260501235524 | 21 | 270 | 0.0 | 9.7 | 0.00 | 0.84 | 0.00 | 57 | 1001.7 |